createdAt,value
2023-05-05T00:00:53.903Z,0.00
2023-05-05T00:01:53.926Z,0.00
2023-05-05T00:02:53.948Z,0.00
2023-05-05T00:03:53.960Z,0.00
2023-05-05T00:04:53.912Z,0.00
2023-05-05T00:05:53.908Z,0.00
2023-05-05T00:06:53.927Z,0.00
2023-05-05T00:07:53.941Z,2.90
2023-05-05T00:08:53.967Z,23.76
2023-05-05T00:09:53.995Z,24.77
2023-05-05T00:10:54.044Z,25.00
2023-05-05T00:11:54.047Z,26.24
2023-05-05T00:12:54.083Z,25.14
2023-05-05T00:13:54.093Z,25.00
2023-05-05T00:14:54.108Z,25.08
2023-05-05T00:15:54.126Z,25.73
2023-05-05T00:16:54.244Z,25.00
2023-05-05T00:17:54.195Z,27.16
2023-05-05T00:18:54.198Z,26.18
2023-05-05T00:19:54.225Z,26.49
2023-05-05T00:20:54.264Z,26.07
2023-05-05T00:21:54.306Z,26.73
2023-05-05T00:22:54.342Z,27.61
2023-05-05T00:23:54.361Z,26.20
2023-05-05T00:24:54.396Z,25.99
2023-05-05T00:25:54.431Z,25.00
2023-05-05T00:26:54.485Z,25.00
2023-05-05T00:27:54.490Z,25.00
2023-05-05T00:28:54.530Z,25.91
2023-05-05T00:29:54.561Z,25.00
2023-05-05T00:30:54.659Z,26.97
2023-05-05T00:31:54.639Z,26.19
2023-05-05T00:32:54.705Z,25.00
2023-05-05T00:33:54.704Z,27.14
2023-05-05T00:34:54.747Z,28.96
2023-05-05T00:35:54.762Z,25.00
2023-05-05T00:36:54.809Z,29.35
2023-05-05T00:37:54.815Z,27.59
2023-05-05T00:38:54.852Z,25.14
2023-05-05T00:39:54.880Z,28.94
2023-05-05T00:40:54.888Z,26.94
2023-05-05T00:41:54.903Z,27.34
2023-05-05T00:42:54.981Z,28.92
2023-05-05T00:43:54.950Z,25.03
2023-05-05T00:44:54.968Z,25.94
2023-05-05T00:45:55.006Z,28.97
2023-05-05T00:46:55.067Z,28.84
2023-05-05T00:47:55.098Z,26.85
2023-05-05T00:48:55.128Z,27.86
2023-05-05T00:49:55.146Z,25.56
2023-05-05T00:50:55.175Z,25.66
2023-05-05T00:51:55.214Z,26.98
2023-05-05T00:52:55.269Z,25.00
2023-05-05T00:53:55.308Z,28.28
2023-05-05T00:54:55.302Z,27.07
2023-05-05T00:55:55.329Z,27.16
2023-05-05T00:56:55.378Z,30.56
2023-05-05T00:57:55.398Z,28.62
2023-05-05T00:58:55.456Z,26.30
2023-05-05T00:59:55.444Z,27.03
2023-05-05T01:00:55.460Z,27.28
2023-05-05T01:01:55.533Z,27.55
2023-05-05T01:02:55.618Z,28.17
2023-05-05T01:03:55.652Z,27.20
2023-05-05T01:04:55.570Z,25.75
2023-05-05T01:05:55.624Z,25.63
2023-05-05T01:06:55.638Z,26.67
2023-05-05T01:07:55.674Z,28.28
2023-05-05T01:08:55.721Z,27.57
2023-05-05T01:10:07.585Z,26.80
2023-05-05T01:10:55.753Z,27.15
2023-05-05T01:11:55.739Z,27.62
2023-05-05T01:12:55.738Z,26.89
2023-05-05T01:13:55.729Z,26.68
2023-05-05T01:14:55.745Z,24.65
2023-05-05T01:15:55.744Z,28.12
2023-05-05T01:16:55.708Z,30.05
2023-05-05T01:17:55.753Z,25.23
2023-05-05T01:18:55.692Z,25.80
2023-05-05T01:19:55.693Z,28.18
2023-05-05T01:20:55.677Z,29.33
2023-05-05T01:21:55.670Z,28.23
2023-05-05T01:22:55.665Z,27.78
2023-05-05T01:23:55.661Z,28.53
2023-05-05T01:24:55.658Z,28.82
2023-05-05T01:25:55.646Z,32.87
2023-05-05T01:26:55.635Z,28.63
2023-05-05T01:27:55.640Z,27.71
2023-05-05T01:28:55.631Z,26.20
2023-05-05T01:29:55.625Z,29.19
2023-05-05T01:30:55.661Z,29.11
2023-05-05T01:31:55.643Z,27.96
2023-05-05T01:32:55.655Z,27.40
2023-05-05T01:33:55.599Z,28.10
2023-05-05T01:34:55.587Z,25.83
2023-05-05T01:35:55.583Z,26.86
2023-05-05T01:36:55.576Z,26.69
2023-05-05T01:37:55.569Z,25.95
2023-05-05T01:38:55.555Z,28.77
2023-05-05T01:39:55.544Z,25.91
2023-05-05T01:40:55.543Z,26.19
2023-05-05T01:41:55.534Z,27.78
2023-05-05T01:42:55.552Z,27.23
2023-05-05T01:43:55.524Z,29.89
2023-05-05T01:44:55.510Z,29.79
2023-05-05T01:45:55.537Z,26.54
2023-05-05T01:46:55.558Z,30.39
2023-05-05T01:47:55.605Z,29.25
2023-05-05T01:48:55.616Z,28.80
2023-05-05T01:49:55.646Z,25.00
2023-05-05T01:50:55.691Z,27.48
2023-05-05T01:51:55.726Z,28.12
2023-05-05T01:52:55.766Z,27.44
2023-05-05T01:53:55.826Z,26.63
2023-05-05T01:54:55.827Z,27.54
2023-05-05T01:55:55.854Z,27.39
2023-05-05T01:56:55.864Z,28.65
2023-05-05T01:57:55.907Z,27.98
2023-05-05T01:58:55.942Z,25.32
2023-05-05T01:59:55.971Z,25.00
2023-05-05T02:00:56.037Z,26.42
2023-05-05T02:01:56.052Z,28.77
2023-05-05T02:02:56.283Z,27.09
2023-05-05T02:03:56.118Z,30.09
2023-05-05T02:04:56.156Z,27.75
2023-05-05T02:05:56.193Z,27.79
2023-05-05T02:06:56.234Z,26.86
2023-05-05T02:07:56.269Z,27.69
2023-05-05T02:08:56.317Z,30.16
2023-05-05T02:09:56.355Z,26.23
2023-05-05T02:10:56.426Z,30.30
2023-05-05T02:11:56.422Z,25.00
2023-05-05T02:12:56.597Z,25.00
2023-05-05T02:13:56.545Z,27.84
2023-05-05T02:14:56.550Z,29.32
2023-05-05T02:15:56.675Z,27.28
2023-05-05T02:16:56.606Z,29.05
2023-05-05T02:17:56.635Z,25.36
2023-05-05T02:18:56.664Z,28.27
2023-05-05T02:19:56.665Z,29.77
2023-05-05T02:20:56.706Z,29.03
2023-05-05T02:21:56.752Z,29.46
2023-05-05T02:22:56.781Z,27.83
2023-05-05T02:23:56.823Z,27.94
2023-05-05T02:24:56.864Z,32.38
2023-05-05T02:25:56.908Z,30.93
2023-05-05T02:26:56.959Z,31.04
2023-05-05T02:27:57.003Z,30.85
2023-05-05T02:28:57.039Z,26.00
2023-05-05T02:29:57.077Z,28.08
2023-05-05T02:30:57.154Z,25.01
2023-05-05T02:31:57.119Z,24.76
2023-05-05T02:32:57.195Z,25.00
2023-05-05T02:33:57.204Z,27.95
2023-05-05T02:34:57.266Z,29.18
2023-05-05T02:35:57.282Z,32.07
2023-05-05T02:36:57.315Z,28.63
2023-05-05T02:37:57.327Z,31.09
2023-05-05T02:38:57.353Z,28.54
2023-05-05T02:39:57.369Z,29.46
2023-05-05T02:40:57.392Z,28.52
2023-05-05T02:41:57.410Z,28.02
2023-05-05T02:42:57.482Z,26.66
2023-05-05T02:43:57.448Z,25.47
2023-05-05T02:44:57.461Z,29.30
2023-05-05T02:45:57.484Z,29.03
2023-05-05T02:46:57.492Z,28.85
2023-05-05T02:47:57.562Z,29.62
2023-05-05T02:48:57.527Z,30.68
2023-05-05T02:49:57.558Z,27.33
2023-05-05T02:50:57.631Z,25.84
2023-05-05T02:51:57.652Z,30.26
2023-05-05T02:52:57.707Z,27.96
2023-05-05T02:53:57.723Z,28.82
2023-05-05T02:54:57.773Z,29.81
2023-05-05T02:55:57.833Z,28.92
2023-05-05T02:56:57.870Z,27.37
2023-05-05T02:57:57.906Z,29.49
2023-05-05T02:58:57.957Z,25.00
2023-05-05T02:59:57.997Z,28.93
2023-05-05T03:00:58.046Z,28.97
2023-05-05T03:01:58.100Z,26.70
2023-05-05T03:02:58.161Z,26.78
2023-05-05T03:03:58.222Z,30.67
2023-05-05T03:04:58.219Z,29.57
2023-05-05T03:05:58.265Z,28.91
2023-05-05T03:06:58.328Z,30.51
2023-05-05T03:07:58.359Z,29.66
2023-05-05T03:08:58.392Z,28.38
2023-05-05T03:09:58.428Z,30.34
2023-05-05T03:10:58.656Z,25.45
2023-05-05T03:11:58.545Z,27.61
2023-05-05T03:12:58.577Z,27.18
2023-05-05T03:13:58.577Z,28.78
2023-05-05T03:14:58.624Z,29.00
2023-05-05T03:15:58.708Z,28.23
2023-05-05T03:16:58.726Z,27.73
2023-05-05T03:17:58.776Z,25.71
2023-05-05T03:18:58.800Z,26.10
2023-05-05T03:19:59.055Z,26.27
2023-05-05T03:20:58.869Z,29.20
2023-05-05T03:21:58.926Z,25.80
2023-05-05T03:22:58.967Z,31.84
2023-05-05T03:23:58.974Z,25.00
2023-05-05T03:24:59.025Z,25.64
2023-05-05T03:25:59.071Z,29.13
2023-05-05T03:26:59.118Z,28.97
2023-05-05T03:27:59.174Z,27.38
2023-05-05T03:28:59.213Z,26.95
2023-05-05T03:29:59.271Z,29.96
2023-05-05T03:30:59.305Z,28.86
2023-05-05T03:31:59.374Z,26.98
2023-05-05T03:33:00.276Z,27.72
2023-05-05T03:33:59.457Z,29.73
2023-05-05T03:34:59.489Z,28.91
2023-05-05T03:35:59.548Z,26.50
2023-05-05T03:36:59.587Z,28.33
2023-05-05T03:37:59.637Z,27.47
2023-05-05T03:38:59.708Z,27.64
2023-05-05T03:39:59.737Z,25.00
2023-05-05T03:40:59.785Z,30.22
2023-05-05T03:41:59.838Z,31.59
2023-05-05T03:42:59.885Z,29.83
2023-05-05T03:43:59.945Z,28.90
2023-05-05T03:44:59.978Z,26.72
2023-05-05T03:46:00.022Z,29.29
2023-05-05T03:47:00.066Z,30.24
2023-05-05T03:48:00.232Z,26.42
2023-05-05T03:49:00.159Z,28.77
2023-05-05T03:50:00.197Z,30.09
2023-05-05T03:51:00.264Z,30.00
2023-05-05T03:52:00.305Z,26.92
2023-05-05T03:53:00.363Z,28.51
2023-05-05T03:54:00.409Z,27.63
2023-05-05T03:55:00.521Z,29.40
2023-05-05T03:56:00.538Z,28.89
2023-05-05T03:57:00.570Z,28.95
2023-05-05T03:58:00.625Z,30.06
2023-05-05T03:59:00.675Z,29.28
2023-05-05T04:00:00.717Z,29.83
2023-05-05T04:01:00.774Z,30.76
2023-05-05T04:02:00.881Z,29.28
2023-05-05T04:03:00.996Z,29.67
2023-05-05T04:04:00.976Z,30.69
2023-05-05T04:05:00.938Z,28.06
2023-05-05T04:06:01.002Z,28.81
2023-05-05T04:07:01.033Z,28.79
2023-05-05T04:08:01.064Z,27.26
2023-05-05T04:09:01.108Z,26.67
2023-05-05T04:10:01.150Z,27.04
2023-05-05T04:11:01.219Z,29.68
2023-05-05T04:12:01.235Z,28.82
2023-05-05T04:13:01.347Z,29.64
2023-05-05T04:14:01.352Z,27.83
2023-05-05T04:15:01.363Z,27.68
2023-05-05T04:16:01.546Z,25.60
2023-05-05T04:17:01.474Z,29.57
2023-05-05T04:18:01.546Z,28.26
2023-05-05T04:19:01.570Z,29.52
2023-05-05T04:20:01.631Z,26.07
2023-05-05T04:21:01.675Z,28.92
2023-05-05T04:22:01.683Z,29.89
2023-05-05T04:23:01.712Z,30.36
2023-05-05T04:24:01.718Z,25.00
2023-05-05T04:25:01.779Z,29.52
2023-05-05T04:26:01.811Z,30.74
2023-05-05T04:27:01.866Z,33.14
2023-05-05T04:28:01.891Z,30.74
2023-05-05T04:29:01.897Z,31.24
2023-05-05T04:30:01.931Z,30.29
2023-05-05T04:31:01.993Z,29.33
2023-05-05T04:32:02.009Z,25.27
2023-05-05T04:33:02.083Z,28.96
2023-05-05T04:34:02.081Z,29.54
2023-05-05T04:35:02.139Z,27.58
2023-05-05T04:36:02.164Z,29.18
2023-05-05T04:37:02.216Z,28.27
2023-05-05T04:38:02.239Z,27.38
2023-05-05T04:39:02.290Z,29.82
2023-05-05T04:40:02.265Z,26.37
2023-05-05T04:41:02.289Z,28.82
2023-05-05T04:42:02.310Z,29.17
2023-05-05T04:43:02.363Z,25.91
2023-05-05T04:44:02.344Z,29.36
2023-05-05T04:45:02.396Z,29.89
2023-05-05T04:46:02.425Z,27.74
2023-05-05T04:47:02.446Z,27.88
2023-05-05T04:48:02.472Z,25.58
2023-05-05T04:49:02.483Z,27.81
2023-05-05T04:50:02.519Z,27.88
2023-05-05T04:51:02.568Z,28.37
2023-05-05T04:52:02.600Z,26.31
2023-05-05T04:53:02.640Z,25.17
2023-05-05T04:54:02.682Z,28.30
2023-05-05T04:55:02.725Z,26.90
2023-05-05T04:56:02.777Z,30.81
2023-05-05T04:57:02.779Z,27.01
2023-05-05T04:58:02.806Z,30.69
2023-05-05T04:59:02.855Z,29.42
2023-05-05T05:00:02.853Z,28.80
2023-05-05T05:01:02.910Z,28.59
2023-05-05T05:02:02.981Z,27.52
2023-05-05T05:03:03.094Z,25.80
2023-05-05T05:04:03.189Z,28.93
2023-05-05T05:05:03.085Z,26.74
2023-05-05T05:06:03.111Z,32.04
2023-05-05T05:07:03.151Z,30.32
2023-05-05T05:08:03.229Z,32.08
2023-05-05T05:09:03.244Z,27.80
2023-05-05T05:10:03.288Z,32.00
2023-05-05T05:11:03.315Z,30.69
2023-05-05T05:12:03.352Z,28.25
2023-05-05T05:13:03.583Z,31.34
2023-05-05T05:14:03.389Z,32.58
2023-05-05T05:15:03.471Z,32.94
2023-05-05T05:16:03.520Z,27.58
2023-05-05T05:17:03.504Z,29.73
2023-05-05T05:18:03.564Z,28.27
2023-05-05T05:19:03.616Z,29.48
2023-05-05T05:20:03.641Z,26.96
2023-05-05T05:21:04.031Z,28.74
2023-05-05T05:22:03.691Z,28.65
2023-05-05T05:23:03.670Z,27.60
2023-05-05T05:24:03.687Z,25.98
2023-05-05T05:25:03.709Z,25.00
2023-05-05T05:26:03.737Z,27.72
2023-05-05T05:27:03.756Z,26.12
2023-05-05T05:28:10.234Z,31.75
2023-05-05T05:29:03.764Z,32.13
2023-05-05T05:30:03.749Z,32.57
2023-05-05T05:31:03.773Z,32.81
2023-05-05T05:32:03.772Z,33.10
2023-05-05T05:33:03.808Z,34.14
2023-05-05T05:34:03.739Z,31.90
2023-05-05T05:35:03.726Z,28.74
2023-05-05T05:36:03.713Z,32.18
2023-05-05T05:37:03.698Z,32.74
2023-05-05T05:38:03.716Z,35.92
2023-05-05T05:39:03.694Z,33.25
2023-05-05T05:40:03.691Z,32.27
2023-05-05T05:41:04.051Z,33.94
2023-05-05T05:42:03.736Z,34.05
2023-05-05T05:43:03.662Z,37.42
2023-05-05T05:44:03.646Z,42.78
2023-05-05T05:45:03.667Z,44.72
2023-05-05T05:46:04.277Z,54.68
2023-05-05T05:47:04.096Z,62.87
2023-05-05T05:48:03.806Z,60.64
2023-05-05T05:49:04.637Z,59.86
2023-05-05T05:50:03.672Z,64.27
2023-05-05T05:51:03.702Z,66.21
2023-05-05T05:52:04.040Z,69.83
2023-05-05T05:53:04.054Z,75.02
2023-05-05T05:54:03.718Z,76.86
2023-05-05T05:55:03.759Z,80.74
2023-05-05T05:56:03.747Z,86.18
2023-05-05T05:57:04.051Z,84.48
2023-05-05T05:58:03.780Z,86.87
2023-05-05T05:59:03.764Z,89.88
2023-05-05T06:00:04.553Z,91.12
2023-05-05T06:01:11.142Z,98.19
2023-05-05T06:02:04.066Z,98.53
2023-05-05T06:03:19.834Z,100.31
2023-05-05T06:04:07.535Z,98.96
2023-05-05T06:05:11.147Z,99.46
2023-05-05T06:06:06.945Z,99.41
2023-05-05T06:07:03.742Z,99.70
2023-05-05T06:08:03.704Z,103.54
2023-05-05T06:09:04.170Z,109.61
2023-05-05T06:10:18.579Z,118.04
2023-05-05T06:11:11.085Z,99.75
2023-05-05T06:12:04.064Z,100.26
2023-05-05T06:13:11.177Z,106.72
2023-05-05T06:14:06.874Z,100.20
2023-05-05T06:15:03.687Z,100.69
2023-05-05T06:18:19.336Z,100.92
2023-05-05T06:19:19.300Z,101.07
2023-05-05T06:20:03.647Z,101.44
2023-05-05T06:21:03.633Z,111.30
2023-05-05T06:22:03.629Z,127.39
2023-05-05T06:23:06.849Z,150.09
2023-05-05T06:24:04.067Z,101.41
2023-05-05T06:25:03.593Z,111.43
2023-05-05T06:26:03.628Z,129.09
2023-05-05T06:27:04.576Z,156.05
2023-05-05T06:28:03.604Z,190.25
2023-05-05T06:29:07.279Z,194.84
2023-05-05T06:30:03.614Z,195.23
2023-05-05T06:31:03.588Z,195.98
2023-05-05T06:32:03.581Z,198.34
2023-05-05T06:33:03.626Z,201.40
2023-05-05T06:34:03.556Z,207.90
2023-05-05T06:35:03.601Z,209.55
2023-05-05T06:36:03.539Z,213.87
2023-05-05T06:37:03.586Z,216.24
2023-05-05T06:38:03.588Z,218.84
2023-05-05T06:39:03.747Z,223.07
2023-05-05T06:40:03.498Z,223.36
2023-05-05T06:41:03.527Z,225.74
2023-05-05T06:42:03.510Z,228.86
2023-05-05T06:43:04.560Z,230.42
2023-05-05T06:44:04.073Z,234.24
2023-05-05T06:45:03.742Z,238.12
2023-05-05T06:46:04.210Z,239.43
2023-05-05T06:47:03.869Z,242.52
2023-05-05T06:48:03.923Z,245.06
2023-05-05T06:49:04.098Z,246.37
2023-05-05T06:50:04.004Z,248.80
2023-05-05T06:51:11.518Z,249.04
2023-05-05T06:52:04.039Z,249.41
2023-05-05T06:53:04.011Z,251.03
2023-05-05T12:16:59.447Z,25.00
2023-05-05T12:18:02.735Z,25.00
2023-05-05T12:19:00.254Z,25.00
2023-05-05T12:20:00.248Z,25.00
2023-05-05T12:21:00.244Z,25.00
2023-05-05T12:22:00.235Z,25.00
2023-05-05T12:23:00.231Z,25.00
2023-05-05T12:24:00.238Z,25.00
2023-05-05T12:25:00.216Z,23.78
2023-05-05T12:26:00.208Z,72.57
2023-05-05T12:27:00.222Z,75.55
2023-05-05T12:28:00.209Z,62.00
2023-05-05T12:29:00.222Z,82.32
2023-05-05T12:30:00.189Z,36.98
2023-05-05T12:31:59.206Z,73.54
2023-05-05T12:33:00.373Z,8.59
2023-05-05T12:34:00.169Z,25.19
2023-05-05T12:35:00.175Z,42.11
2023-05-05T12:36:00.159Z,29.82
2023-05-05T12:37:00.161Z,25.00
2023-05-05T12:38:00.205Z,43.23
2023-05-05T12:39:00.144Z,51.82
2023-05-05T12:40:00.186Z,48.22
2023-05-05T12:41:00.151Z,43.42
2023-05-05T12:42:00.127Z,43.73
2023-05-05T12:43:00.192Z,68.70
2023-05-05T12:44:00.469Z,64.84
2023-05-05T12:45:00.135Z,21.61
2023-05-05T12:46:00.141Z,21.45
2023-05-05T12:47:00.081Z,37.48
2023-05-05T12:48:00.151Z,101.53
2023-05-05T12:49:00.247Z,85.13
2023-05-05T12:50:00.460Z,59.89
2023-05-05T12:51:00.063Z,19.94
2023-05-05T12:52:00.044Z,43.23
2023-05-05T12:53:00.044Z,75.20
2023-05-05T12:54:00.039Z,99.38
2023-05-05T12:55:00.465Z,99.94
2023-05-05T12:56:00.046Z,112.84
2023-05-05T12:57:00.105Z,121.35
2023-05-05T12:58:00.157Z,95.53
2023-05-05T12:59:00.239Z,39.95
2023-05-05T13:00:00.481Z,56.74
2023-05-05T13:01:00.428Z,97.94
2023-05-05T13:02:00.337Z,84.00
2023-05-05T13:03:00.460Z,54.23
2023-05-05T13:04:00.430Z,69.92
2023-05-05T13:05:01.084Z,100.26
2023-05-05T13:06:00.537Z,74.20
2023-05-05T13:07:00.592Z,53.25
2023-05-05T13:08:00.636Z,68.81
2023-05-05T13:09:00.683Z,54.49
2023-05-05T13:10:00.997Z,72.74
2023-05-05T13:11:00.771Z,65.35
2023-05-05T13:12:00.820Z,41.30
2023-05-05T13:13:00.984Z,102.66
2023-05-05T13:14:00.892Z,45.75
2023-05-05T13:15:00.925Z,67.99
2023-05-05T13:16:00.996Z,68.11
2023-05-05T13:17:00.990Z,36.49
2023-05-05T13:18:01.341Z,36.25
2023-05-05T13:19:01.122Z,38.65
2023-05-05T13:20:01.175Z,65.08
2023-05-05T13:21:01.288Z,104.42
2023-05-05T13:22:01.271Z,128.70
2023-05-05T13:23:01.314Z,147.77
2023-05-05T13:24:08.591Z,130.03
2023-05-05T13:25:01.355Z,131.01
2023-05-05T13:26:01.488Z,138.17
2023-05-05T13:27:01.321Z,135.41
2023-05-05T13:28:01.311Z,180.01
2023-05-05T13:29:01.304Z,254.38
2023-05-05T13:30:01.480Z,209.49
2023-05-05T13:31:01.320Z,263.62
2023-05-05T13:32:01.299Z,269.45
2023-05-05T13:33:01.287Z,270.39
2023-05-05T13:34:01.485Z,266.33
2023-05-05T13:35:01.265Z,261.78
2023-05-05T13:36:01.270Z,249.88
2023-05-05T13:37:01.355Z,200.58
2023-05-05T13:38:01.259Z,151.60
2023-05-05T13:39:01.246Z,137.47
2023-05-05T13:40:01.262Z,146.26
2023-05-05T13:41:01.231Z,124.55
2023-05-05T13:42:01.227Z,115.65
2023-05-05T13:43:01.218Z,119.21
2023-05-05T13:44:01.220Z,114.91
2023-05-05T13:45:01.219Z,90.95
2023-05-05T13:46:16.217Z,104.29
2023-05-05T13:47:01.261Z,104.25
2023-05-05T13:48:01.256Z,74.95
2023-05-05T13:49:01.511Z,55.29
2023-05-05T13:50:01.172Z,64.20
2023-05-05T13:51:01.496Z,58.42
2023-05-05T13:52:01.162Z,57.60
2023-05-05T13:53:01.330Z,102.64
2023-05-05T13:54:01.152Z,84.68
2023-05-05T13:55:01.155Z,61.18
2023-05-05T13:56:01.137Z,67.69
2023-05-05T13:57:01.136Z,59.03
2023-05-05T13:58:01.125Z,37.60
2023-05-05T13:59:01.119Z,56.36
2023-05-05T14:00:01.148Z,43.13
2023-05-05T14:01:01.970Z,35.10
2023-05-05T14:02:01.105Z,47.40
2023-05-05T14:03:01.157Z,61.16
2023-05-05T14:04:03.626Z,58.21
2023-05-05T14:05:01.091Z,44.43
2023-05-05T14:06:01.095Z,40.10
2023-05-05T14:07:01.089Z,41.45
2023-05-05T14:08:01.065Z,61.01
2023-05-05T14:09:01.710Z,39.45
2023-05-05T14:10:01.091Z,28.81
2023-05-05T14:11:01.502Z,14.47
2023-05-05T14:12:01.048Z,39.72
2023-05-05T14:13:01.094Z,60.92
2023-05-05T14:14:01.035Z,41.17
2023-05-05T14:15:01.025Z,48.83
2023-05-05T14:16:01.106Z,29.48
2023-05-05T14:17:01.086Z,49.08
2023-05-05T14:18:01.009Z,54.34
2023-05-05T14:19:01.055Z,58.96
2023-05-05T14:20:01.100Z,103.77
2023-05-05T14:21:01.127Z,130.77
2023-05-05T14:22:01.131Z,163.22
2023-05-05T14:23:01.145Z,191.03
2023-05-05T14:24:01.135Z,217.04
2023-05-05T14:25:01.285Z,236.94
2023-05-05T14:26:01.128Z,202.96
2023-05-05T14:27:01.160Z,163.05
2023-05-05T14:28:01.218Z,163.19
2023-05-05T14:29:01.233Z,188.40
2023-05-05T14:30:01.252Z,147.88
2023-05-05T14:31:01.235Z,126.07
2023-05-05T14:32:01.335Z,135.35
2023-05-05T14:33:01.418Z,118.09
2023-05-05T14:34:01.497Z,102.46
2023-05-05T14:35:01.360Z,100.28
2023-05-05T14:36:01.379Z,86.39
2023-05-05T14:37:01.426Z,67.27
2023-05-05T14:38:01.416Z,57.95
2023-05-05T14:39:01.503Z,39.67
2023-05-05T14:40:02.534Z,27.65
2023-05-05T14:41:01.573Z,40.19
2023-05-05T14:42:01.415Z,51.17
2023-05-05T14:43:01.409Z,59.58
2023-05-05T14:44:01.400Z,71.08
2023-05-05T14:45:01.384Z,53.44
2023-05-05T14:46:01.424Z,40.70
2023-05-05T14:47:01.379Z,22.55
2023-05-05T14:48:01.396Z,36.12
2023-05-05T14:49:01.371Z,51.99
2023-05-05T14:50:01.357Z,49.04
2023-05-05T14:51:01.351Z,65.23
2023-05-05T14:52:01.347Z,27.45
2023-05-05T14:53:01.346Z,22.42
2023-05-05T14:54:01.341Z,30.94
2023-05-05T14:55:01.324Z,27.77
2023-05-05T14:56:01.320Z,26.02
2023-05-05T14:57:01.409Z,38.71
2023-05-05T14:58:01.311Z,30.31
2023-05-05T14:59:01.297Z,30.26
2023-05-05T15:00:01.333Z,28.35
2023-05-05T15:01:01.285Z,36.16
2023-05-05T15:02:01.627Z,37.09
2023-05-05T15:03:01.380Z,45.74
2023-05-05T15:04:01.291Z,52.51
2023-05-05T15:05:01.260Z,57.13
2023-05-05T15:06:01.269Z,60.24
2023-05-05T15:07:01.244Z,67.00
2023-05-05T15:08:01.233Z,55.91
2023-05-05T15:09:01.228Z,52.98
2023-05-05T15:10:01.217Z,37.93
2023-05-05T15:11:01.208Z,37.09
2023-05-05T15:12:01.200Z,54.48
2023-05-05T15:13:01.355Z,60.35
2023-05-05T15:14:01.190Z,69.10
2023-05-05T15:15:01.204Z,75.98
2023-05-05T15:16:01.245Z,80.81
2023-05-05T15:17:01.201Z,86.09
2023-05-05T15:18:01.280Z,76.78
2023-05-05T15:19:01.287Z,67.55
2023-05-05T15:20:01.371Z,61.25
2023-05-05T15:21:01.402Z,62.82
2023-05-05T15:22:01.468Z,76.16
2023-05-05T15:23:01.467Z,66.91
2023-05-05T15:24:01.510Z,59.42
2023-05-05T15:25:01.594Z,72.66
2023-05-05T15:26:01.635Z,68.95
2023-05-05T15:27:01.671Z,71.64
2023-05-05T15:28:01.750Z,68.31
2023-05-05T15:29:01.959Z,65.51
2023-05-05T15:30:01.789Z,62.05
2023-05-05T15:31:01.850Z,60.95
2023-05-05T15:32:01.944Z,53.96
2023-05-05T15:33:01.944Z,52.52
2023-05-05T15:34:01.978Z,74.75
2023-05-05T15:35:02.036Z,61.03
2023-05-05T15:36:02.121Z,60.81
2023-05-05T15:37:02.161Z,70.39
2023-05-05T15:38:02.219Z,63.66
2023-05-05T15:39:02.250Z,66.99
2023-05-05T15:40:02.311Z,69.43
2023-05-05T15:41:02.323Z,114.26
2023-05-05T15:42:02.356Z,109.28
2023-05-05T15:43:02.375Z,94.06
2023-05-05T15:44:02.393Z,114.05
2023-05-05T15:45:02.451Z,116.13
2023-05-05T15:46:02.403Z,114.89
2023-05-05T15:47:02.456Z,120.96
2023-05-05T15:48:02.478Z,99.45
2023-05-05T15:49:02.446Z,90.05
2023-05-05T15:50:02.546Z,133.80
2023-05-05T15:51:02.490Z,169.79
2023-05-05T15:52:02.476Z,201.58
2023-05-05T15:53:02.475Z,226.65
2023-05-05T15:54:02.480Z,243.96
2023-05-05T15:55:02.473Z,238.25
2023-05-05T15:56:02.486Z,250.37
2023-05-05T15:57:02.479Z,250.51
2023-05-05T15:58:02.508Z,232.27
2023-05-05T15:59:02.511Z,203.54
2023-05-05T16:00:02.556Z,231.28
2023-05-05T16:01:02.598Z,247.94
2023-05-05T16:02:02.576Z,243.54
2023-05-05T16:03:02.702Z,237.68
2023-05-05T16:04:02.606Z,237.32
2023-05-05T16:05:02.616Z,237.59
2023-05-05T16:06:02.644Z,237.02
2023-05-05T16:07:02.659Z,225.36
2023-05-05T16:08:02.674Z,240.05
2023-05-05T16:09:02.699Z,249.69
2023-05-05T16:10:02.785Z,247.00
2023-05-05T16:11:02.725Z,245.06
2023-05-05T16:12:02.733Z,232.21
2023-05-05T16:13:02.837Z,221.69
2023-05-05T16:14:02.798Z,235.93
2023-05-05T16:15:02.830Z,247.93
2023-05-05T16:16:02.828Z,249.23
2023-05-05T16:17:03.048Z,241.85
2023-05-05T16:18:02.922Z,249.55
2023-05-05T16:19:02.914Z,222.70
2023-05-05T16:20:02.951Z,178.59
2023-05-05T16:21:02.968Z,172.61
2023-05-05T16:22:02.956Z,153.29
2023-05-05T16:23:02.958Z,145.27
2023-05-05T16:24:02.987Z,150.40
2023-05-05T16:25:03.021Z,141.91
2023-05-05T16:26:03.058Z,127.52
2023-05-05T16:27:03.082Z,115.27
2023-05-05T16:28:03.093Z,129.07
2023-05-05T16:29:03.091Z,126.05
2023-05-05T16:30:03.243Z,118.03
2023-05-05T16:31:03.141Z,109.58
2023-05-05T16:32:03.271Z,109.39
2023-05-05T16:33:03.381Z,96.37
2023-05-05T16:34:03.215Z,100.29
2023-05-05T16:35:03.236Z,91.31
2023-05-05T16:36:03.246Z,94.19
2023-05-05T16:37:03.294Z,89.09
2023-05-05T16:38:03.366Z,86.88
2023-05-05T16:39:03.383Z,118.04
2023-05-05T16:40:03.389Z,133.86
2023-05-05T16:41:03.486Z,141.47
2023-05-05T16:42:03.479Z,146.44
2023-05-05T16:43:03.505Z,153.52
2023-05-05T16:44:03.513Z,157.76
2023-05-05T16:45:03.526Z,162.77
2023-05-05T16:46:03.601Z,171.48
2023-05-05T16:47:03.531Z,177.15
2023-05-05T16:48:03.612Z,185.98
2023-05-05T16:49:03.712Z,191.91
2023-05-05T16:50:03.671Z,197.94
2023-05-05T16:51:03.718Z,202.32
2023-05-05T16:52:03.819Z,205.16
2023-05-05T16:53:03.844Z,211.26
2023-05-05T16:54:03.898Z,210.95
2023-05-05T16:55:03.942Z,215.42
2023-05-05T16:56:03.989Z,222.74
2023-05-05T16:57:04.050Z,228.20
2023-05-05T16:58:04.102Z,237.23
2023-05-05T16:59:04.143Z,235.98
2023-05-05T17:00:04.202Z,243.13
2023-05-05T17:01:04.259Z,245.14
2023-05-05T17:02:04.416Z,245.40
2023-05-05T17:03:04.372Z,249.43
2023-05-05T17:04:04.434Z,251.62
2023-05-05T17:05:04.664Z,247.12
2023-05-05T17:06:04.506Z,250.00
2023-05-05T17:07:04.553Z,249.39
2023-05-05T17:08:04.596Z,247.86
2023-05-05T17:09:04.637Z,249.21
2023-05-05T17:10:04.686Z,249.91
2023-05-05T17:11:04.733Z,248.08
2023-05-05T17:12:04.784Z,249.21
2023-05-05T17:13:04.873Z,245.16
2023-05-05T17:14:04.957Z,247.99
2023-05-05T17:15:04.908Z,244.33
2023-05-05T17:16:05.002Z,250.00
2023-05-05T17:17:05.004Z,250.00
2023-05-05T17:18:05.101Z,246.45
2023-05-05T17:19:05.119Z,248.87
2023-05-05T17:20:05.173Z,247.80
2023-05-05T17:21:05.258Z,248.00
2023-05-05T17:22:05.226Z,248.53
2023-05-05T17:23:05.272Z,250.00
2023-05-05T17:24:05.311Z,249.00
2023-05-05T17:25:05.363Z,250.00
2023-05-05T17:26:05.416Z,249.81
2023-05-05T17:27:05.473Z,249.65
2023-05-05T17:28:05.522Z,248.51
2023-05-05T17:29:05.575Z,247.42
2023-05-05T17:30:05.631Z,247.71
2023-05-05T17:31:05.698Z,243.37
2023-05-05T17:32:05.847Z,244.44
2023-05-05T17:33:05.867Z,244.11
2023-05-05T17:34:05.889Z,243.24
2023-05-05T17:35:05.941Z,244.44
2023-05-05T17:36:05.996Z,244.30
2023-05-05T17:37:06.091Z,241.26
2023-05-05T17:38:06.116Z,238.23
2023-05-05T17:39:06.151Z,231.67
2023-05-05T17:40:06.223Z,234.88
2023-05-05T17:41:07.137Z,238.41
2023-05-05T17:42:07.064Z,238.59
2023-05-05T17:43:06.552Z,236.14
2023-05-05T17:44:06.824Z,235.65
2023-05-05T17:45:06.327Z,234.49
2023-05-05T17:46:06.846Z,234.93
2023-05-05T17:47:06.826Z,234.93
2023-05-05T17:48:06.766Z,234.28
2023-05-05T17:49:06.522Z,234.31
2023-05-05T17:50:06.546Z,234.26
2023-05-05T17:51:06.605Z,235.75
2023-05-05T17:52:06.664Z,235.30
2023-05-05T17:53:06.853Z,235.57
2023-05-05T17:54:06.794Z,235.40
2023-05-05T17:55:07.199Z,235.49
2023-05-05T17:56:08.944Z,235.13
2023-05-05T17:57:06.884Z,237.01
2023-05-05T17:58:06.887Z,235.32
2023-05-05T17:59:06.871Z,236.07
2023-05-05T18:00:06.871Z,235.99
2023-05-05T18:01:06.876Z,233.12
2023-05-05T18:02:06.912Z,236.07
2023-05-05T18:03:06.918Z,237.34
2023-05-05T18:04:06.840Z,234.95
2023-05-05T18:05:06.995Z,236.25
2023-05-05T18:06:06.835Z,238.54
2023-05-05T18:07:06.836Z,239.65
2023-05-05T18:08:06.812Z,239.81
2023-05-05T18:09:07.287Z,240.39
2023-05-05T18:10:06.797Z,241.78
2023-05-05T18:11:06.800Z,242.05
2023-05-05T18:12:06.798Z,241.89